sensor_id;sensor_type;location;lat;lon;timestamp;pressure;altitude;pressure_sealevel;temperature;humidity
65329;BME280;51941;52.210;5.158;2023-04-15T00:00:18;100821.28;;;8.44;73.30
65329;BME280;51941;52.210;5.158;2023-04-15T00:02:45;100787.81;;;8.20;75.14
65329;BME280;51941;52.210;5.158;2023-04-15T00:05:12;100822.88;;;8.46;73.83
65329;BME280;51941;52.210;5.158;2023-04-15T00:07:40;100830.59;;;8.47;73.56
65329;BME280;51941;52.210;5.158;2023-04-15T00:10:07;100795.25;;;8.30;73.67
65329;BME280;51941;52.210;5.158;2023-04-15T00:12:34;100828.56;;;8.49;73.68
65329;BME280;51941;52.210;5.158;2023-04-15T00:15:01;100819.59;;;8.50;73.23
65329;BME280;51941;52.210;5.158;2023-04-15T00:17:28;100820.84;;;8.48;74.21
65329;BME280;51941;52.210;5.158;2023-04-15T00:19:55;100818.81;;;8.50;74.13
65329;BME280;51941;52.210;5.158;2023-04-15T00:22:24;100826.47;;;8.51;73.00
65329;BME280;51941;52.210;5.158;2023-04-15T00:24:53;100769.63;;;8.12;73.54
65329;BME280;51941;52.210;5.158;2023-04-15T00:27:19;100781.88;;;8.25;73.57
65329;BME280;51941;52.210;5.158;2023-04-15T00:29:46;100822.28;;;8.43;73.08
65329;BME280;51941;52.210;5.158;2023-04-15T00:32:12;100820.09;;;8.40;73.29
65329;BME280;51941;52.210;5.158;2023-04-15T00:34:40;100819.72;;;8.37;74.69
65329;BME280;51941;52.210;5.158;2023-04-15T00:37:08;100818.09;;;8.36;73.59
65329;BME280;51941;52.210;5.158;2023-04-15T00:39:35;100822.78;;;8.34;74.71
65329;BME280;51941;52.210;5.158;2023-04-15T00:42:03;100819.78;;;8.30;75.43
65329;BME280;51941;52.210;5.158;2023-04-15T00:44:30;100820.00;;;8.29;74.80
65329;BME280;51941;52.210;5.158;2023-04-15T00:46:59;100822.03;;;8.27;74.91
65329;BME280;51941;52.210;5.158;2023-04-15T00:49:26;100815.00;;;8.21;75.16
65329;BME280;51941;52.210;5.158;2023-04-15T00:51:54;100830.44;;;8.17;75.99
65329;BME280;51941;52.210;5.158;2023-04-15T00:54:22;100827.78;;;8.17;77.60
65329;BME280;51941;52.210;5.158;2023-04-15T00:56:49;100822.16;;;8.14;76.52
65329;BME280;51941;52.210;5.158;2023-04-15T00:59:18;100831.09;;;8.13;77.44
65329;BME280;51941;52.210;5.158;2023-04-15T01:01:45;100789.66;;;7.88;76.83
65329;BME280;51941;52.210;5.158;2023-04-15T01:04:12;100818.59;;;8.01;77.75
65329;BME280;51941;52.210;5.158;2023-04-15T01:06:39;100823.44;;;8.04;77.50
65329;BME280;51941;52.210;5.158;2023-04-15T01:09:06;100802.06;;;7.88;77.90
65329;BME280;51941;52.210;5.158;2023-04-15T01:11:32;100823.31;;;7.93;79.16
65329;BME280;51941;52.210;5.158;2023-04-15T01:14:00;100825.72;;;7.94;78.66
65329;BME280;51941;52.210;5.158;2023-04-15T01:16:29;100822.50;;;7.92;79.00
65329;BME280;51941;52.210;5.158;2023-04-15T01:18:55;100824.38;;;7.85;79.01
65329;BME280;51941;52.210;5.158;2023-04-15T01:21:22;100820.94;;;7.85;79.63
65329;BME280;51941;52.210;5.158;2023-04-15T01:23:49;100776.13;;;7.53;79.81
65329;BME280;51941;52.210;5.158;2023-04-15T01:26:20;100811.25;;;7.72;79.80
65329;BME280;51941;52.210;5.158;2023-04-15T01:28:47;100815.38;;;7.68;79.78
65329;BME280;51941;52.210;5.158;2023-04-15T01:31:14;100829.13;;;7.70;80.21
65329;BME280;51941;52.210;5.158;2023-04-15T01:33:41;100799.09;;;7.40;81.01
65329;BME280;51941;52.210;5.158;2023-04-15T01:36:09;100835.44;;;7.62;83.04
65329;BME280;51941;52.210;5.158;2023-04-15T01:38:36;100836.09;;;7.58;84.92
65329;BME280;51941;52.210;5.158;2023-04-15T01:41:03;100800.09;;;7.39;84.69
65329;BME280;51941;52.210;5.158;2023-04-15T01:43:33;100837.09;;;7.57;85.49
65329;BME280;51941;52.210;5.158;2023-04-15T01:46:00;100833.66;;;7.56;85.07
65329;BME280;51941;52.210;5.158;2023-04-15T01:48:27;100818.94;;;7.42;85.93
65329;BME280;51941;52.210;5.158;2023-04-15T01:50:55;100830.41;;;7.54;85.58
65329;BME280;51941;52.210;5.158;2023-04-15T01:53:22;100832.47;;;7.52;86.42
65329;BME280;51941;52.210;5.158;2023-04-15T01:55:50;100835.72;;;7.48;87.80
65329;BME280;51941;52.210;5.158;2023-04-15T01:58:17;100838.75;;;7.45;88.11
65329;BME280;51941;52.210;5.158;2023-04-15T02:00:45;100836.38;;;7.43;89.11
65329;BME280;51941;52.210;5.158;2023-04-15T02:03:12;100837.59;;;7.41;88.56
65329;BME280;51941;52.210;5.158;2023-04-15T02:05:38;100842.03;;;7.40;88.74
65329;BME280;51941;52.210;5.158;2023-04-15T02:08:05;100803.84;;;7.11;90.71
65329;BME280;51941;52.210;5.158;2023-04-15T02:10:32;100833.75;;;7.30;89.91
65329;BME280;51941;52.210;5.158;2023-04-15T02:12:58;100835.78;;;7.28;90.41
65329;BME280;51941;52.210;5.158;2023-04-15T02:15:27;100790.78;;;6.91;92.23
65329;BME280;51941;52.210;5.158;2023-04-15T02:17:55;100807.94;;;7.01;91.89
65329;BME280;51941;52.210;5.158;2023-04-15T02:20:23;100838.22;;;7.23;91.59
65329;BME280;51941;52.210;5.158;2023-04-15T02:22:50;100765.13;;;6.74;92.62
65329;BME280;51941;52.210;5.158;2023-04-15T02:25:17;100845.56;;;7.14;93.15
65329;BME280;51941;52.210;5.158;2023-04-15T02:27:44;100843.09;;;7.19;93.22
65329;BME280;51941;52.210;5.158;2023-04-15T02:30:11;100845.16;;;7.17;94.29
65329;BME280;51941;52.210;5.158;2023-04-15T02:32:39;100850.19;;;7.19;93.49
65329;BME280;51941;52.210;5.158;2023-04-15T02:35:09;100854.06;;;7.16;94.77
65329;BME280;51941;52.210;5.158;2023-04-15T02:37:36;100864.38;;;7.11;95.96
65329;BME280;51941;52.210;5.158;2023-04-15T02:40:09;100854.66;;;7.12;95.82
65329;BME280;51941;52.210;5.158;2023-04-15T02:42:37;100862.34;;;7.13;96.26
65329;BME280;51941;52.210;5.158;2023-04-15T02:45:06;100870.47;;;7.12;96.35
65329;BME280;51941;52.210;5.158;2023-04-15T02:47:34;100864.59;;;7.10;96.10
65329;BME280;51941;52.210;5.158;2023-04-15T02:50:03;100876.72;;;7.11;95.67
65329;BME280;51941;52.210;5.158;2023-04-15T02:52:32;100883.44;;;7.07;96.13
65329;BME280;51941;52.210;5.158;2023-04-15T02:54:59;100870.28;;;7.07;95.83
65329;BME280;51941;52.210;5.158;2023-04-15T02:57:28;100870.69;;;6.97;96.35
65329;BME280;51941;52.210;5.158;2023-04-15T02:59:57;100873.34;;;6.97;96.61
65329;BME280;51941;52.210;5.158;2023-04-15T03:02:24;100856.56;;;6.78;97.10
65329;BME280;51941;52.210;5.158;2023-04-15T03:04:51;100873.53;;;6.96;96.12
65329;BME280;51941;52.210;5.158;2023-04-15T03:07:18;100885.28;;;7.00;97.81
65329;BME280;51941;52.210;5.158;2023-04-15T03:09:47;100889.13;;;6.97;98.61
65329;BME280;51941;52.210;5.158;2023-04-15T03:12:13;100886.91;;;6.94;98.57
65329;BME280;51941;52.210;5.158;2023-04-15T03:14:40;100874.34;;;6.83;99.72
65329;BME280;51941;52.210;5.158;2023-04-15T03:17:07;100884.47;;;6.92;99.18
65329;BME280;51941;52.210;5.158;2023-04-15T03:19:33;100815.94;;;6.41;100.00
65329;BME280;51941;52.210;5.158;2023-04-15T03:22:01;100890.94;;;6.83;100.00
65329;BME280;51941;52.210;5.158;2023-04-15T03:24:28;100896.00;;;6.85;100.00
65329;BME280;51941;52.210;5.158;2023-04-15T03:26:57;100901.88;;;6.87;100.00
65329;BME280;51941;52.210;5.158;2023-04-15T03:29:24;100897.84;;;6.84;100.00
65329;BME280;51941;52.210;5.158;2023-04-15T03:31:51;100890.56;;;6.80;100.00
65329;BME280;51941;52.210;5.158;2023-04-15T03:34:18;100858.03;;;6.54;100.00
65329;BME280;51941;52.210;5.158;2023-04-15T03:36:45;100903.13;;;6.78;100.00
65329;BME280;51941;52.210;5.158;2023-04-15T03:39:11;100906.75;;;6.77;100.00
65329;BME280;51941;52.210;5.158;2023-04-15T03:41:38;100904.75;;;6.72;100.00
65329;BME280;51941;52.210;5.158;2023-04-15T03:44:06;100895.63;;;6.62;100.00
65329;BME280;51941;52.210;5.158;2023-04-15T03:46:33;100908.78;;;6.68;100.00
65329;BME280;51941;52.210;5.158;2023-04-15T03:49:00;100924.38;;;6.63;100.00
65329;BME280;51941;52.210;5.158;2023-04-15T03:51:27;100924.56;;;6.62;100.00
65329;BME280;51941;52.210;5.158;2023-04-15T03:53:53;100923.34;;;6.57;100.00
65329;BME280;51941;52.210;5.158;2023-04-15T03:56:20;100924.78;;;6.53;100.00
65329;BME280;51941;52.210;5.158;2023-04-15T03:58:47;100893.41;;;6.26;100.00
65329;BME280;51941;52.210;5.158;2023-04-15T04:01:15;100938.31;;;6.50;100.00
65329;BME280;51941;52.210;5.158;2023-04-15T04:03:42;100940.56;;;6.47;100.00
65329;BME280;51941;52.210;5.158;2023-04-15T04:06:08;100935.69;;;6.44;100.00
65329;BME280;51941;52.210;5.158;2023-04-15T04:08:37;100912.81;;;6.25;100.00
65329;BME280;51941;52.210;5.158;2023-04-15T04:11:04;100940.94;;;6.37;100.00
65329;BME280;51941;52.210;5.158;2023-04-15T04:13:31;100912.78;;;6.11;100.00
65329;BME280;51941;52.210;5.158;2023-04-15T04:15:57;100866.63;;;5.83;100.00
65329;BME280;51941;52.210;5.158;2023-04-15T04:18:25;100949.59;;;6.31;100.00
65329;BME280;51941;52.210;5.158;2023-04-15T04:20:52;100928.16;;;6.14;100.00
65329;BME280;51941;52.210;5.158;2023-04-15T04:23:19;100916.19;;;6.05;100.00
65329;BME280;51941;52.210;5.158;2023-04-15T04:25:45;100953.03;;;6.25;100.00
65329;BME280;51941;52.210;5.158;2023-04-15T04:28:12;100950.81;;;6.22;100.00
65329;BME280;51941;52.210;5.158;2023-04-15T04:30:39;100960.50;;;6.22;100.00
65329;BME280;51941;52.210;5.158;2023-04-15T04:33:06;100952.59;;;6.15;100.00
65329;BME280;51941;52.210;5.158;2023-04-15T04:35:34;100964.13;;;6.14;100.00
65329;BME280;51941;52.210;5.158;2023-04-15T04:38:02;100949.34;;;6.00;100.00
65329;BME280;51941;52.210;5.158;2023-04-15T04:40:29;100968.19;;;6.16;100.00
65329;BME280;51941;52.210;5.158;2023-04-15T04:42:55;100981.13;;;6.18;100.00
65329;BME280;51941;52.210;5.158;2023-04-15T04:45:22;100985.78;;;6.16;100.00
65329;BME280;51941;52.210;5.158;2023-04-15T04:47:49;100947.28;;;5.89;100.00
65329;BME280;51941;52.210;5.158;2023-04-15T04:50:16;100985.75;;;6.09;100.00
65329;BME280;51941;52.210;5.158;2023-04-15T04:52:44;101003.97;;;6.17;100.00
65329;BME280;51941;52.210;5.158;2023-04-15T04:55:11;101007.41;;;6.18;100.00
65329;BME280;51941;52.210;5.158;2023-04-15T04:57:37;100998.47;;;6.12;100.00
65329;BME280;51941;52.210;5.158;2023-04-15T05:00:06;101005.78;;;6.17;100.00
65329;BME280;51941;52.210;5.158;2023-04-15T05:02:33;101015.09;;;6.20;100.00
65329;BME280;51941;52.210;5.158;2023-04-15T05:05:00;101015.09;;;6.20;100.00
65329;BME280;51941;52.210;5.158;2023-04-15T05:07:27;101025.63;;;6.20;100.00
65329;BME280;51941;52.210;5.158;2023-04-15T05:09:55;101016.50;;;6.22;100.00
65329;BME280;51941;52.210;5.158;2023-04-15T05:12:21;101024.03;;;6.32;100.00
65329;BME280;51941;52.210;5.158;2023-04-15T05:14:48;101023.84;;;6.33;100.00
65329;BME280;51941;52.210;5.158;2023-04-15T05:17:15;101008.84;;;6.27;100.00
65329;BME280;51941;52.210;5.158;2023-04-15T05:19:45;101039.44;;;6.41;100.00
65329;BME280;51941;52.210;5.158;2023-04-15T05:22:12;101026.63;;;6.25;100.00
65329;BME280;51941;52.210;5.158;2023-04-15T05:24:45;101019.38;;;6.21;100.00
65329;BME280;51941;52.210;5.158;2023-04-15T05:27:13;101046.50;;;6.34;100.00
65329;BME280;51941;52.210;5.158;2023-04-15T05:29:40;101049.94;;;6.35;100.00
65329;BME280;51941;52.210;5.158;2023-04-15T05:32:07;101057.63;;;6.36;100.00
65329;BME280;51941;52.210;5.158;2023-04-15T05:34:33;101055.63;;;6.38;100.00
65329;BME280;51941;52.210;5.158;2023-04-15T05:37:00;101048.84;;;6.16;100.00
65329;BME280;51941;52.210;5.158;2023-04-15T05:39:26;101073.78;;;6.33;100.00
65329;BME280;51941;52.210;5.158;2023-04-15T05:41:53;101080.66;;;6.34;100.00
65329;BME280;51941;52.210;5.158;2023-04-15T05:44:21;101081.09;;;6.38;100.00
65329;BME280;51941;52.210;5.158;2023-04-15T05:46:48;101078.25;;;6.39;100.00
65329;BME280;51941;52.210;5.158;2023-04-15T05:49:15;101053.53;;;6.27;100.00
65329;BME280;51941;52.210;5.158;2023-04-15T05:51:41;101081.31;;;6.49;100.00
65329;BME280;51941;52.210;5.158;2023-04-15T05:54:08;101092.88;;;6.55;100.00
65329;BME280;51941;52.210;5.158;2023-04-15T05:56:35;101100.16;;;6.60;100.00
65329;BME280;51941;52.210;5.158;2023-04-15T05:59:01;101105.03;;;6.63;100.00
65329;BME280;51941;52.210;5.158;2023-04-15T06:01:29;101108.69;;;6.68;100.00
65329;BME280;51941;52.210;5.158;2023-04-15T06:03:56;101111.94;;;6.70;100.00
65329;BME280;51941;52.210;5.158;2023-04-15T06:06:23;101121.47;;;6.78;100.00
65329;BME280;51941;52.210;5.158;2023-04-15T06:08:49;101084.59;;;6.58;100.00
65329;BME280;51941;52.210;5.158;2023-04-15T06:11:16;101136.69;;;6.89;100.00
65329;BME280;51941;52.210;5.158;2023-04-15T06:13:43;101134.25;;;6.87;100.00
65329;BME280;51941;52.210;5.158;2023-04-15T06:16:09;101120.88;;;6.82;100.00
65329;BME280;51941;52.210;5.158;2023-04-15T06:18:37;101140.75;;;6.98;100.00
65329;BME280;51941;52.210;5.158;2023-04-15T06:21:04;101150.91;;;7.14;100.00
65329;BME280;51941;52.210;5.158;2023-04-15T06:23:33;101153.59;;;7.34;100.00
65329;BME280;51941;52.210;5.158;2023-04-15T06:26:00;101149.56;;;7.58;100.00
65329;BME280;51941;52.210;5.158;2023-04-15T06:28:26;101156.44;;;7.85;100.00
65329;BME280;51941;52.210;5.158;2023-04-15T06:30:53;101154.09;;;8.28;100.00
65329;BME280;51941;52.210;5.158;2023-04-15T06:33:20;101159.06;;;8.63;100.00
65329;BME280;51941;52.210;5.158;2023-04-15T06:35:48;101159.44;;;9.11;100.00
65329;BME280;51941;52.210;5.158;2023-04-15T06:38:15;101132.38;;;9.15;100.00
65329;BME280;51941;52.210;5.158;2023-04-15T06:40:42;101168.91;;;9.75;100.00
65329;BME280;51941;52.210;5.158;2023-04-15T06:43:08;101175.66;;;9.96;100.00
65329;BME280;51941;52.210;5.158;2023-04-15T06:45:35;101178.34;;;10.32;100.00
65329;BME280;51941;52.210;5.158;2023-04-15T06:48:02;101184.38;;;10.57;100.00
65329;BME280;51941;52.210;5.158;2023-04-15T06:50:28;101145.38;;;10.64;98.28
65329;BME280;51941;52.210;5.158;2023-04-15T06:52:56;101185.28;;;11.29;95.97
65329;BME280;51941;52.210;5.158;2023-04-15T06:55:23;101195.06;;;11.40;93.36
65329;BME280;51941;52.210;5.158;2023-04-15T06:57:50;101171.00;;;11.42;92.32
65329;BME280;51941;52.210;5.158;2023-04-15T07:00:17;101199.53;;;11.81;90.80
65329;BME280;51941;52.210;5.158;2023-04-15T07:02:44;101190.31;;;11.96;89.36
65329;BME280;51941;52.210;5.158;2023-04-15T07:05:11;101210.19;;;12.16;87.75
65329;BME280;51941;52.210;5.158;2023-04-15T07:07:38;101206.25;;;12.31;86.37
65329;BME280;51941;52.210;5.158;2023-04-15T07:10:07;101211.78;;;12.41;84.36
65329;BME280;51941;52.210;5.158;2023-04-15T07:12:34;101192.28;;;12.24;83.00
65329;BME280;51941;52.210;5.158;2023-04-15T07:15:01;101223.63;;;12.62;82.77
65329;BME280;51941;52.210;5.158;2023-04-15T07:17:29;101230.16;;;12.82;81.65
65329;BME280;51941;52.210;5.158;2023-04-15T07:19:59;101226.06;;;12.91;80.26
65329;BME280;51941;52.210;5.158;2023-04-15T07:22:26;101233.66;;;13.00;78.57
65329;BME280;51941;52.210;5.158;2023-04-15T07:24:52;101226.41;;;12.95;76.36
65329;BME280;51941;52.210;5.158;2023-04-15T07:27:21;101233.72;;;12.88;75.77
65329;BME280;51941;52.210;5.158;2023-04-15T07:29:47;101240.94;;;13.04;74.40
65329;BME280;51941;52.210;5.158;2023-04-15T07:32:18;101248.81;;;13.27;74.72
65329;BME280;51941;52.210;5.158;2023-04-15T07:34:45;101249.25;;;13.36;72.23
65329;BME280;51941;52.210;5.158;2023-04-15T07:37:12;101251.88;;;13.48;71.32
65329;BME280;51941;52.210;5.158;2023-04-15T07:39:39;101249.25;;;13.64;70.09
65329;BME280;51941;52.210;5.158;2023-04-15T07:42:05;101234.97;;;13.71;69.26
65329;BME280;51941;52.210;5.158;2023-04-15T07:44:34;101263.69;;;14.02;67.42
65329;BME280;51941;52.210;5.158;2023-04-15T07:47:01;101247.97;;;14.00;65.14
65329;BME280;51941;52.210;5.158;2023-04-15T07:49:28;101251.75;;;14.21;64.71
65329;BME280;51941;52.210;5.158;2023-04-15T07:51:55;101273.66;;;14.28;63.72
65329;BME280;51941;52.210;5.158;2023-04-15T07:54:24;101267.19;;;14.41;63.10
65329;BME280;51941;52.210;5.158;2023-04-15T07:56:51;101273.69;;;14.50;61.30
65329;BME280;51941;52.210;5.158;2023-04-15T07:59:18;101285.09;;;14.46;60.62
65329;BME280;51941;52.210;5.158;2023-04-15T08:01:46;101283.84;;;14.15;60.35
65329;BME280;51941;52.210;5.158;2023-04-15T08:04:13;101297.66;;;14.12;61.21
65329;BME280;51941;52.210;5.158;2023-04-15T08:06:40;101305.63;;;13.95;61.35
65329;BME280;51941;52.210;5.158;2023-04-15T08:09:06;101282.31;;;13.68;62.15
65329;BME280;51941;52.210;5.158;2023-04-15T08:11:33;101302.94;;;13.78;63.69
65329;BME280;51941;52.210;5.158;2023-04-15T08:14:00;101305.97;;;13.70;63.88
65329;BME280;51941;52.210;5.158;2023-04-15T08:16:27;101306.75;;;13.82;64.97
65329;BME280;51941;52.210;5.158;2023-04-15T08:18:55;101311.50;;;13.97;63.22
65329;BME280;51941;52.210;5.158;2023-04-15T08:21:23;101304.81;;;13.94;62.70
65329;BME280;51941;52.210;5.158;2023-04-15T08:23:51;101318.13;;;14.11;62.20
65329;BME280;51941;52.210;5.158;2023-04-15T08:26:19;101317.22;;;13.89;61.97
65329;BME280;51941;52.210;5.158;2023-04-15T08:28:47;101312.75;;;13.61;63.68
65329;BME280;51941;52.210;5.158;2023-04-15T08:31:15;101323.91;;;13.46;63.99
65329;BME280;51941;52.210;5.158;2023-04-15T08:33:42;101320.75;;;13.21;65.72
65329;BME280;51941;52.210;5.158;2023-04-15T08:36:11;101322.22;;;13.28;66.86
65329;BME280;51941;52.210;5.158;2023-04-15T08:38:38;101331.47;;;13.26;66.70
65329;BME280;51941;52.210;5.158;2023-04-15T08:41:08;101339.03;;;13.06;65.07
65329;BME280;51941;52.210;5.158;2023-04-15T08:43:41;101342.75;;;12.93;65.60
65329;BME280;51941;52.210;5.158;2023-04-15T08:46:11;101346.94;;;12.77;65.76
65329;BME280;51941;52.210;5.158;2023-04-15T08:48:38;101315.06;;;12.66;66.19
65329;BME280;51941;52.210;5.158;2023-04-15T08:51:05;101327.44;;;12.72;65.66
65329;BME280;51941;52.210;5.158;2023-04-15T08:53:34;101350.41;;;12.66;65.91
65329;BME280;51941;52.210;5.158;2023-04-15T08:56:03;101356.66;;;12.72;66.05
65329;BME280;51941;52.210;5.158;2023-04-15T08:58:33;101358.97;;;12.68;64.67
65329;BME280;51941;52.210;5.158;2023-04-15T09:01:01;101357.56;;;12.66;63.94
65329;BME280;51941;52.210;5.158;2023-04-15T09:03:28;101376.38;;;12.64;64.33
65329;BME280;51941;52.210;5.158;2023-04-15T09:05:56;101361.84;;;12.78;64.33
65329;BME280;51941;52.210;5.158;2023-04-15T09:08:22;101366.00;;;12.74;63.10
65329;BME280;51941;52.210;5.158;2023-04-15T09:10:50;101377.31;;;12.70;61.84
65329;BME280;51941;52.210;5.158;2023-04-15T09:13:17;101377.66;;;12.62;61.43
65329;BME280;51941;52.210;5.158;2023-04-15T09:15:44;101384.94;;;12.66;60.95
65329;BME280;51941;52.210;5.158;2023-04-15T09:18:11;101311.25;;;12.38;61.17
65329;BME280;51941;52.210;5.158;2023-04-15T09:20:39;101370.84;;;12.66;60.68
65329;BME280;51941;52.210;5.158;2023-04-15T09:23:14;101389.53;;;12.82;61.54
65329;BME280;51941;52.210;5.158;2023-04-15T09:25:41;101388.97;;;12.92;60.57
65329;BME280;51941;52.210;5.158;2023-04-15T09:28:10;101394.53;;;12.79;60.56
65329;BME280;51941;52.210;5.158;2023-04-15T09:30:36;101394.50;;;13.02;61.04
65329;BME280;51941;52.210;5.158;2023-04-15T09:33:03;101386.75;;;13.12;60.74
65329;BME280;51941;52.210;5.158;2023-04-15T09:35:33;101405.09;;;13.25;59.87
65329;BME280;51941;52.210;5.158;2023-04-15T09:38:02;101407.56;;;13.15;58.58
65329;BME280;51941;52.210;5.158;2023-04-15T09:40:30;101410.53;;;13.07;58.40
65329;BME280;51941;52.210;5.158;2023-04-15T09:42:57;101402.78;;;13.17;58.47
65329;BME280;51941;52.210;5.158;2023-04-15T09:45:25;101416.91;;;13.18;59.51
65329;BME280;51941;52.210;5.158;2023-04-15T09:47:52;101414.38;;;13.23;59.53
65329;BME280;51941;52.210;5.158;2023-04-15T09:50:19;101421.66;;;13.04;61.72
65329;BME280;51941;52.210;5.158;2023-04-15T09:52:46;101430.00;;;12.96;61.80
65329;BME280;51941;52.210;5.158;2023-04-15T09:55:14;101447.06;;;13.00;61.99
65329;BME280;51941;52.210;5.158;2023-04-15T09:57:45;101445.94;;;12.96;62.91
65329;BME280;51941;52.210;5.158;2023-04-15T10:00:13;101423.38;;;12.75;62.80
65329;BME280;51941;52.210;5.158;2023-04-15T10:02:42;101436.91;;;12.85;63.10
65329;BME280;51941;52.210;5.158;2023-04-15T10:05:10;101442.91;;;12.81;63.47
65329;BME280;51941;52.210;5.158;2023-04-15T10:07:39;101436.34;;;12.95;62.27
65329;BME280;51941;52.210;5.158;2023-04-15T10:10:07;101444.31;;;13.07;63.41
65329;BME280;51941;52.210;5.158;2023-04-15T10:12:36;101443.13;;;13.26;63.38
65329;BME280;51941;52.210;5.158;2023-04-15T10:15:04;101442.56;;;13.24;66.40
65329;BME280;51941;52.210;5.158;2023-04-15T10:17:32;101462.09;;;13.29;66.61
65329;BME280;51941;52.210;5.158;2023-04-15T10:20:03;101453.09;;;13.42;65.71
65329;BME280;51941;52.210;5.158;2023-04-15T10:22:31;101475.50;;;13.23;66.34
65329;BME280;51941;52.210;5.158;2023-04-15T10:24:58;101460.38;;;13.23;66.18
65329;BME280;51941;52.210;5.158;2023-04-15T10:27:26;101467.06;;;13.14;67.79
65329;BME280;51941;52.210;5.158;2023-04-15T10:29:54;101469.38;;;13.22;68.32
65329;BME280;51941;52.210;5.158;2023-04-15T10:32:23;101510.88;;;13.12;67.40
65329;BME280;51941;52.210;5.158;2023-04-15T10:34:51;101445.00;;;12.90;68.56
65329;BME280;51941;52.210;5.158;2023-04-15T10:37:33;101480.81;;;13.11;69.68
65329;BME280;51941;52.210;5.158;2023-04-15T10:40:00;101482.44;;;13.12;68.97
65329;BME280;51941;52.210;5.158;2023-04-15T10:42:33;101442.34;;;12.79;69.38
65329;BME280;51941;52.210;5.158;2023-04-15T10:44:59;101472.84;;;13.00;70.61
65329;BME280;51941;52.210;5.158;2023-04-15T10:47:27;101500.81;;;13.25;69.33
65329;BME280;51941;52.210;5.158;2023-04-15T10:49:57;101407.56;;;12.69;69.46
65329;BME280;51941;52.210;5.158;2023-04-15T10:52:27;101487.63;;;12.96;70.62
65329;BME280;51941;52.210;5.158;2023-04-15T10:55:01;101502.88;;;13.00;71.77
65329;BME280;51941;52.210;5.158;2023-04-15T10:57:33;101479.91;;;12.94;70.28
65329;BME280;51941;52.210;5.158;2023-04-15T11:00:11;101512.72;;;13.11;70.52
65329;BME280;51941;52.210;5.158;2023-04-15T11:02:40;101483.59;;;13.05;70.66
65329;BME280;51941;52.210;5.158;2023-04-15T11:05:07;101501.03;;;13.36;69.81
65329;BME280;51941;52.210;5.158;2023-04-15T11:07:54;101498.41;;;13.59;69.64
65329;BME280;51941;52.210;5.158;2023-04-15T11:10:52;101481.50;;;13.53;68.90
65329;BME280;51941;52.210;5.158;2023-04-15T11:13:25;101507.41;;;13.46;71.64
65329;BME280;51941;52.210;5.158;2023-04-15T11:15:57;101507.38;;;13.35;72.14
65329;BME280;51941;52.210;5.158;2023-04-15T11:18:27;101512.38;;;13.54;72.23
65329;BME280;51941;52.210;5.158;2023-04-15T11:20:56;101489.38;;;13.60;71.80
65329;BME280;51941;52.210;5.158;2023-04-15T11:23:29;101502.84;;;13.70;70.97
65329;BME280;51941;52.210;5.158;2023-04-15T11:25:57;101513.19;;;13.66;69.89
65329;BME280;51941;52.210;5.158;2023-04-15T11:28:25;101511.19;;;13.74;68.63
65329;BME280;51941;52.210;5.158;2023-04-15T11:30:52;101550.19;;;13.45;68.52
65329;BME280;51941;52.210;5.158;2023-04-15T11:33:20;101497.00;;;13.10;68.01
65329;BME280;51941;52.210;5.158;2023-04-15T11:35:47;101528.56;;;13.29;68.36
65329;BME280;51941;52.210;5.158;2023-04-15T11:38:14;101513.91;;;13.39;66.53
65329;BME280;51941;52.210;5.158;2023-04-15T11:40:42;101546.72;;;13.56;66.42
65329;BME280;51941;52.210;5.158;2023-04-15T11:43:11;101541.63;;;13.43;68.12
65329;BME280;51941;52.210;5.158;2023-04-15T11:45:48;101546.81;;;13.26;68.53
65329;BME280;51941;52.210;5.158;2023-04-15T11:48:16;101534.69;;;13.07;69.26
65329;BME280;51941;52.210;5.158;2023-04-15T11:50:43;101565.28;;;12.98;68.76
65329;BME280;51941;52.210;5.158;2023-04-15T11:53:11;101559.63;;;12.94;68.20
65329;BME280;51941;52.210;5.158;2023-04-15T11:55:43;101562.63;;;13.09;67.01
65329;BME280;51941;52.210;5.158;2023-04-15T11:58:13;101580.34;;;13.15;66.89
65329;BME280;51941;52.210;5.158;2023-04-15T12:00:45;101521.16;;;13.20;65.64
65329;BME280;51941;52.210;5.158;2023-04-15T12:03:14;101564.28;;;13.34;65.60
65329;BME280;51941;52.210;5.158;2023-04-15T12:06:07;101573.88;;;13.23;67.15
65329;BME280;51941;52.210;5.158;2023-04-15T12:08:51;101551.72;;;12.76;69.28
65329;BME280;51941;52.210;5.158;2023-04-15T12:11:20;101575.44;;;13.01;68.68
65329;BME280;51941;52.210;5.158;2023-04-15T12:13:48;101572.94;;;13.29;67.59
65329;BME280;51941;52.210;5.158;2023-04-15T12:16:16;101591.19;;;13.14;68.27
65329;BME280;51941;52.210;5.158;2023-04-15T12:18:44;101609.09;;;13.07;68.35
65329;BME280;51941;52.210;5.158;2023-04-15T12:21:12;101566.09;;;13.10;69.71
65329;BME280;51941;52.210;5.158;2023-04-15T12:23:39;101628.88;;;13.11;69.79
65329;BME280;51941;52.210;5.158;2023-04-15T12:26:06;101579.72;;;13.02;70.23
65329;BME280;51941;52.210;5.158;2023-04-15T12:28:34;101589.78;;;13.00;70.56
65329;BME280;51941;52.210;5.158;2023-04-15T12:31:06;101586.78;;;13.08;70.81
65329;BME280;51941;52.210;5.158;2023-04-15T12:33:34;101571.19;;;13.11;70.10
65329;BME280;51941;52.210;5.158;2023-04-15T12:36:00;101600.44;;;13.35;70.28
65329;BME280;51941;52.210;5.158;2023-04-15T12:38:28;101531.06;;;13.01;69.83
65329;BME280;51941;52.210;5.158;2023-04-15T12:40:55;101598.16;;;13.38;70.32
65329;BME280;51941;52.210;5.158;2023-04-15T12:43:22;101620.34;;;13.32;70.53
65329;BME280;51941;52.210;5.158;2023-04-15T12:45:50;101618.22;;;13.11;70.50
65329;BME280;51941;52.210;5.158;2023-04-15T12:48:17;101596.00;;;12.93;70.81
65329;BME280;51941;52.210;5.158;2023-04-15T12:50:44;101608.22;;;12.83;71.89
65329;BME280;51941;52.210;5.158;2023-04-15T12:53:10;101610.81;;;13.01;72.58
65329;BME280;51941;52.210;5.158;2023-04-15T12:55:37;101613.31;;;12.84;73.70